THY6805 LTAC-LTFJ
Flight info
| Callsign | THY6805 |
|---|---|
| Flight time | 0h 48m |
| Altitude | 28000 |
| Route | LTAC/03L N0450F280 DERE1T DEREL T79 NAMAN NAMA1G LTFJ/06R |
| Aircraft | B738/M-CDT/C |
Departure
| Time | 2026-04-28 15:56 |
|---|---|
| Airport | Esenboğa International Airport (LTAC) |
Arrival
| Time | 2026-04-28 16:44 |
|---|---|
| Airport | Istanbul Sabiha Gökçen International Airport (LTFJ) |
| Time | Latitude | Longitude | Altitude | Speed | Heading |
|---|---|---|---|---|---|
| 2026-04-28 15:44 | 40.11494 | 32.98952 | 3112 ft | 0 kts | 131° |
| 2026-04-28 15:52 | 40.11493 | 32.98952 | 3112 ft | 0 kts | 136° |
| 2026-04-28 15:53 | 40.11490 | 32.98951 | 3112 ft | 1 kts | 169° |
| 2026-04-28 15:53 | 40.11488 | 32.98945 | 3112 ft | 1 kts | 240° |
| 2026-04-28 15:53 | 40.11484 | 32.98918 | 3112 ft | 6 kts | 259° |
| 2026-04-28 15:53 | 40.11468 | 32.98843 | 3112 ft | 11 kts | 244° |
| 2026-04-28 15:54 | 40.11402 | 32.98755 | 3112 ft | 16 kts | 217° |
| 2026-04-28 15:54 | 40.11300 | 32.98654 | 3109 ft | 22 kts | 218° |
| 2026-04-28 15:54 | 40.11325 | 32.98489 | 3108 ft | 22 kts | 309° |
| 2026-04-28 15:54 | 40.11433 | 32.98370 | 3108 ft | 21 kts | 360° |
| 2026-04-28 15:55 | 40.11573 | 32.98475 | 3109 ft | 39 kts | 37° |
| 2026-04-28 15:55 | 40.11976 | 32.98865 | 3114 ft | 104 kts | 36° |
| 2026-04-28 15:55 | 40.12720 | 32.99565 | 3121 ft | 157 kts | 35° |
| 2026-04-28 15:55 | 40.13696 | 33.00463 | 3459 ft | 178 kts | 35° |
| 2026-04-28 15:56 | 40.14718 | 33.01422 | 4113 ft | 184 kts | 36° |
| 2026-04-28 15:56 | 40.15743 | 33.02417 | 4670 ft | 185 kts | 38° |
| 2026-04-28 15:56 | 40.16755 | 33.03480 | 5040 ft | 188 kts | 38° |
| 2026-04-28 15:56 | 40.17781 | 33.04560 | 5418 ft | 191 kts | 38° |
| 2026-04-28 15:57 | 40.18832 | 33.05653 | 5816 ft | 194 kts | 38° |
| 2026-04-28 15:57 | 40.19902 | 33.06759 | 6199 ft | 198 kts | 38° |
| 2026-04-28 15:57 | 40.21157 | 33.07518 | 6557 ft | 208 kts | 1° |
| 2026-04-28 15:57 | 40.22540 | 33.07012 | 6992 ft | 212 kts | 331° |
| 2026-04-28 15:58 | 40.23807 | 33.05954 | 7381 ft | 221 kts | 317° |
| 2026-04-28 15:58 | 40.24836 | 33.04412 | 7782 ft | 230 kts | 308° |
| 2026-04-28 15:58 | 40.25849 | 33.02733 | 8177 ft | 239 kts | 308° |
| 2026-04-28 15:58 | 40.26905 | 33.00977 | 8543 ft | 251 kts | 308° |
| 2026-04-28 15:59 | 40.27996 | 32.99165 | 8906 ft | 263 kts | 308° |
| 2026-04-28 15:59 | 40.29169 | 32.97223 | 9294 ft | 279 kts | 308° |
| 2026-04-28 15:59 | 40.30395 | 32.95194 | 9879 ft | 288 kts | 307° |
| 2026-04-28 15:59 | 40.31598 | 32.93063 | 10449 ft | 292 kts | 305° |
| 2026-04-28 16:00 | 40.32786 | 32.90875 | 10815 ft | 303 kts | 305° |
| 2026-04-28 16:00 | 40.34044 | 32.88541 | 10985 ft | 326 kts | 305° |
| 2026-04-28 16:00 | 40.35405 | 32.86020 | 11167 ft | 349 kts | 305° |
| 2026-04-28 16:00 | 40.36851 | 32.83346 | 11330 ft | 369 kts | 305° |
| 2026-04-28 16:01 | 40.38368 | 32.80548 | 11652 ft | 382 kts | 305° |
| 2026-04-28 16:01 | 40.39923 | 32.77685 | 12194 ft | 388 kts | 305° |
| 2026-04-28 16:01 | 40.41494 | 32.74793 | 12866 ft | 390 kts | 305° |
| 2026-04-28 16:01 | 40.43073 | 32.71888 | 13475 ft | 393 kts | 305° |
| 2026-04-28 16:02 | 40.44664 | 32.68957 | 14062 ft | 396 kts | 305° |
| 2026-04-28 16:02 | 40.46271 | 32.65997 | 14656 ft | 399 kts | 305° |
| 2026-04-28 16:02 | 40.47884 | 32.63021 | 15249 ft | 402 kts | 305° |
| 2026-04-28 16:02 | 40.49513 | 32.60015 | 15763 ft | 406 kts | 305° |
| 2026-04-28 16:03 | 40.51139 | 32.57010 | 16222 ft | 411 kts | 305° |
| 2026-04-28 16:03 | 40.52822 | 32.53896 | 16750 ft | 413 kts | 305° |
| 2026-04-28 16:03 | 40.54491 | 32.50806 | 17273 ft | 416 kts | 305° |
| 2026-04-28 16:03 | 40.56147 | 32.47735 | 17745 ft | 419 kts | 305° |
| 2026-04-28 16:04 | 40.57843 | 32.44589 | 18170 ft | 423 kts | 305° |
| 2026-04-28 16:04 | 40.59548 | 32.41421 | 18573 ft | 426 kts | 305° |
| 2026-04-28 16:04 | 40.61268 | 32.38223 | 19001 ft | 429 kts | 305° |
| 2026-04-28 16:04 | 40.62994 | 32.35009 | 19442 ft | 431 kts | 305° |
| 2026-04-28 16:05 | 40.64728 | 32.31779 | 19867 ft | 433 kts | 305° |
| 2026-04-28 16:05 | 40.66473 | 32.28524 | 20255 ft | 436 kts | 305° |
| 2026-04-28 16:05 | 40.68231 | 32.25242 | 20682 ft | 438 kts | 305° |
| 2026-04-28 16:05 | 40.69968 | 32.21991 | 21119 ft | 440 kts | 304° |
| 2026-04-28 16:06 | 40.71545 | 32.18469 | 21511 ft | 442 kts | 296° |
| 2026-04-28 16:06 | 40.72663 | 32.14687 | 21876 ft | 445 kts | 288° |
| 2026-04-28 16:06 | 40.73603 | 32.10790 | 22246 ft | 447 kts | 287° |
| 2026-04-28 16:06 | 40.74508 | 32.06921 | 22592 ft | 449 kts | 287° |
| 2026-04-28 16:07 | 40.75432 | 32.02972 | 22929 ft | 452 kts | 287° |
| 2026-04-28 16:07 | 40.76369 | 31.99000 | 23262 ft | 454 kts | 287° |
| 2026-04-28 16:07 | 40.78279 | 31.91024 | 23891 ft | 459 kts | 287° |
| 2026-04-28 16:08 | 40.79249 | 31.87002 | 24201 ft | 460 kts | 288° |
| 2026-04-28 16:08 | 40.80221 | 31.82977 | 24562 ft | 461 kts | 288° |
| 2026-04-28 16:08 | 40.81198 | 31.78924 | 24880 ft | 463 kts | 287° |
| 2026-04-28 16:09 | 40.83155 | 31.70791 | 25427 ft | 468 kts | 287° |
| 2026-04-28 16:09 | 40.84129 | 31.66727 | 25609 ft | 471 kts | 287° |
| 2026-04-28 16:09 | 40.85117 | 31.62597 | 25838 ft | 473 kts | 287° |
| 2026-04-28 16:10 | 40.87085 | 31.54351 | 26550 ft | 472 kts | 287° |
| 2026-04-28 16:10 | 40.88072 | 31.50203 | 26847 ft | 472 kts | 287° |
| 2026-04-28 16:10 | 40.90015 | 31.42015 | 27789 ft | 465 kts | 287° |
| 2026-04-28 16:11 | 40.91951 | 31.33828 | 27990 ft | 468 kts | 287° |
| 2026-04-28 16:11 | 40.93879 | 31.25646 | 28000 ft | 464 kts | 287° |
| 2026-04-28 16:12 | 40.96740 | 31.13450 | 27990 ft | 462 kts | 287° |
| 2026-04-28 16:13 | 40.98294 | 31.05196 | 27994 ft | 466 kts | 275° |
| 2026-04-28 16:13 | 40.98325 | 31.00898 | 27901 ft | 469 kts | 265° |
| 2026-04-28 16:13 | 40.96786 | 30.92696 | 27121 ft | 456 kts | 247° |
| 2026-04-28 16:14 | 40.94259 | 30.85000 | 26387 ft | 464 kts | 246° |
| 2026-04-28 16:14 | 40.91638 | 30.77057 | 25647 ft | 469 kts | 246° |
| 2026-04-28 16:15 | 40.89102 | 30.69238 | 24888 ft | 456 kts | 247° |
| 2026-04-28 16:15 | 40.87862 | 30.65390 | 24516 ft | 453 kts | 247° |
| 2026-04-28 16:15 | 40.86631 | 30.61568 | 24142 ft | 451 kts | 247° |
| 2026-04-28 16:16 | 40.84146 | 30.53861 | 23415 ft | 464 kts | 247° |
| 2026-04-28 16:16 | 40.82867 | 30.49904 | 23033 ft | 460 kts | 247° |
| 2026-04-28 16:17 | 40.80392 | 30.42270 | 22282 ft | 452 kts | 247° |
| 2026-04-28 16:17 | 40.79156 | 30.38466 | 21911 ft | 450 kts | 247° |
| 2026-04-28 16:17 | 40.77926 | 30.34684 | 21532 ft | 447 kts | 247° |
| 2026-04-28 16:17 | 40.76695 | 30.30907 | 21150 ft | 446 kts | 247° |
| 2026-04-28 16:18 | 40.75470 | 30.27153 | 20782 ft | 444 kts | 247° |
| 2026-04-28 16:18 | 40.74249 | 30.23415 | 20408 ft | 443 kts | 246° |
| 2026-04-28 16:18 | 40.73031 | 30.19692 | 20040 ft | 441 kts | 246° |
| 2026-04-28 16:18 | 40.71816 | 30.15983 | 19660 ft | 439 kts | 246° |
| 2026-04-28 16:19 | 40.70605 | 30.12292 | 19285 ft | 437 kts | 246° |
| 2026-04-28 16:19 | 40.69420 | 30.08684 | 18932 ft | 435 kts | 246° |
| 2026-04-28 16:19 | 40.68220 | 30.05035 | 18616 ft | 432 kts | 246° |
| 2026-04-28 16:19 | 40.67030 | 30.01424 | 18335 ft | 428 kts | 246° |
| 2026-04-28 16:20 | 40.65846 | 29.97843 | 18066 ft | 426 kts | 246° |
| 2026-04-28 16:20 | 40.64665 | 29.94276 | 17793 ft | 423 kts | 246° |
| 2026-04-28 16:20 | 40.63493 | 29.90737 | 17517 ft | 421 kts | 246° |
| 2026-04-28 16:20 | 40.62319 | 29.87197 | 17234 ft | 420 kts | 246° |
| 2026-04-28 16:21 | 40.61154 | 29.83687 | 17046 ft | 418 kts | 246° |
| 2026-04-28 16:21 | 40.59990 | 29.80185 | 16843 ft | 417 kts | 246° |
| 2026-04-28 16:21 | 40.58825 | 29.76680 | 16646 ft | 417 kts | 246° |
| 2026-04-28 16:22 | 40.58008 | 29.74227 | 16503 ft | 417 kts | 246° |
| 2026-04-28 16:22 | 40.57111 | 29.71536 | 16350 ft | 417 kts | 246° |
| 2026-04-28 16:22 | 40.55947 | 29.68050 | 16146 ft | 416 kts | 246° |
| 2026-04-28 16:22 | 40.54784 | 29.64568 | 15948 ft | 415 kts | 246° |
| 2026-04-28 16:23 | 40.53622 | 29.61092 | 15749 ft | 414 kts | 246° |
| 2026-04-28 16:23 | 40.52461 | 29.57626 | 15547 ft | 413 kts | 246° |
| 2026-04-28 16:23 | 40.51303 | 29.54172 | 15349 ft | 412 kts | 246° |
| 2026-04-28 16:23 | 40.50150 | 29.50735 | 15148 ft | 410 kts | 246° |
| 2026-04-28 16:24 | 40.48998 | 29.47309 | 14948 ft | 408 kts | 246° |
| 2026-04-28 16:24 | 40.47854 | 29.43908 | 14744 ft | 406 kts | 246° |
| 2026-04-28 16:24 | 40.46728 | 29.40567 | 14548 ft | 405 kts | 246° |
| 2026-04-28 16:24 | 40.45595 | 29.37205 | 14346 ft | 403 kts | 246° |
| 2026-04-28 16:25 | 40.44462 | 29.33847 | 14140 ft | 397 kts | 246° |
| 2026-04-28 16:25 | 40.43358 | 29.30582 | 13930 ft | 384 kts | 246° |
| 2026-04-28 16:25 | 40.42290 | 29.27430 | 13717 ft | 371 kts | 246° |
| 2026-04-28 16:25 | 40.41375 | 29.24322 | 13489 ft | 360 kts | 258° |
| 2026-04-28 16:26 | 40.41270 | 29.21104 | 13286 ft | 349 kts | 277° |
| 2026-04-28 16:26 | 40.41901 | 29.18088 | 13076 ft | 340 kts | 295° |
| 2026-04-28 16:26 | 40.43034 | 29.15429 | 12898 ft | 330 kts | 301° |
| 2026-04-28 16:26 | 40.43820 | 29.13723 | 12744 ft | 325 kts | 298° |
| 2026-04-28 16:27 | 40.44503 | 29.10958 | 12530 ft | 317 kts | 275° |
| 2026-04-28 16:27 | 40.44434 | 29.08096 | 12343 ft | 309 kts | 264° |
| 2026-04-28 16:27 | 40.43981 | 29.02601 | 11928 ft | 297 kts | 264° |
| 2026-04-28 16:28 | 40.43748 | 28.99069 | 11646 ft | 289 kts | 272° |
| 2026-04-28 16:28 | 40.43900 | 28.97309 | 11508 ft | 286 kts | 280° |
| 2026-04-28 16:28 | 40.44312 | 28.94778 | 11312 ft | 281 kts | 283° |
| 2026-04-28 16:28 | 40.44739 | 28.92287 | 11119 ft | 279 kts | 282° |
| 2026-04-28 16:29 | 40.45536 | 28.87332 | 10710 ft | 276 kts | 283° |
| 2026-04-28 16:29 | 40.47128 | 28.82797 | 10308 ft | 273 kts | 300° |
| 2026-04-28 16:30 | 40.48055 | 28.80656 | 10114 ft | 273 kts | 299° |
| 2026-04-28 16:30 | 40.48976 | 28.78477 | 9914 ft | 272 kts | 298° |
| 2026-04-28 16:30 | 40.49885 | 28.76290 | 9715 ft | 272 kts | 298° |
| 2026-04-28 16:30 | 40.50952 | 28.74255 | 9503 ft | 272 kts | 313° |
| 2026-04-28 16:31 | 40.52298 | 28.72505 | 9319 ft | 272 kts | 316° |
| 2026-04-28 16:31 | 40.53670 | 28.70802 | 9137 ft | 271 kts | 316° |
| 2026-04-28 16:31 | 40.55027 | 28.69086 | 8938 ft | 271 kts | 315° |
| 2026-04-28 16:31 | 40.56376 | 28.67351 | 8739 ft | 271 kts | 315° |
| 2026-04-28 16:32 | 40.57788 | 28.65719 | 8526 ft | 272 kts | 327° |
| 2026-04-28 16:32 | 40.61119 | 28.63393 | 8142 ft | 271 kts | 333° |
| 2026-04-28 16:32 | 40.62843 | 28.62402 | 7923 ft | 272 kts | 347° |
| 2026-04-28 16:33 | 40.64714 | 28.62377 | 7724 ft | 271 kts | 14° |
| 2026-04-28 16:33 | 40.65871 | 28.62987 | 7589 ft | 271 kts | 32° |
| 2026-04-28 16:33 | 40.67500 | 28.65423 | 7305 ft | 271 kts | 65° |
| 2026-04-28 16:33 | 40.68161 | 28.67772 | 7098 ft | 270 kts | 71° |
| 2026-04-28 16:34 | 40.68760 | 28.70125 | 6871 ft | 271 kts | 71° |
| 2026-04-28 16:34 | 40.69365 | 28.72472 | 6650 ft | 271 kts | 71° |
| 2026-04-28 16:34 | 40.69979 | 28.74812 | 6415 ft | 270 kts | 71° |
| 2026-04-28 16:34 | 40.70593 | 28.77138 | 6188 ft | 266 kts | 71° |
| 2026-04-28 16:35 | 40.71198 | 28.79425 | 5950 ft | 263 kts | 70° |
| 2026-04-28 16:35 | 40.71797 | 28.81684 | 5724 ft | 260 kts | 70° |
| 2026-04-28 16:35 | 40.72391 | 28.83925 | 5497 ft | 257 kts | 70° |
| 2026-04-28 16:35 | 40.72977 | 28.86138 | 5268 ft | 254 kts | 70° |
| 2026-04-28 16:36 | 40.73548 | 28.88297 | 5038 ft | 252 kts | 70° |
| 2026-04-28 16:36 | 40.74120 | 28.90463 | 4835 ft | 248 kts | 70° |
| 2026-04-28 16:36 | 40.74677 | 28.92570 | 4622 ft | 239 kts | 70° |
| 2026-04-28 16:36 | 40.75216 | 28.94610 | 4384 ft | 232 kts | 70° |
| 2026-04-28 16:37 | 40.75738 | 28.96592 | 4154 ft | 225 kts | 71° |
| 2026-04-28 16:37 | 40.76244 | 28.98511 | 3963 ft | 217 kts | 71° |
| 2026-04-28 16:37 | 40.76729 | 29.00353 | 3788 ft | 209 kts | 71° |
| 2026-04-28 16:38 | 40.78034 | 29.03733 | 3451 ft | 205 kts | 56° |
| 2026-04-28 16:38 | 40.78806 | 29.05279 | 3252 ft | 198 kts | 56° |
| 2026-04-28 16:38 | 40.79543 | 29.06770 | 3056 ft | 190 kts | 57° |
| 2026-04-28 16:38 | 40.80238 | 29.08191 | 2865 ft | 177 kts | 57° |
| 2026-04-28 16:39 | 40.80840 | 29.09538 | 2682 ft | 165 kts | 63° |
| 2026-04-28 16:39 | 40.81326 | 29.10842 | 2587 ft | 152 kts | 64° |
| 2026-04-28 16:39 | 40.81780 | 29.12075 | 2400 ft | 147 kts | 64° |
| 2026-04-28 16:39 | 40.82230 | 29.13296 | 2225 ft | 148 kts | 64° |
| 2026-04-28 16:40 | 40.82680 | 29.14518 | 2077 ft | 148 kts | 64° |
| 2026-04-28 16:40 | 40.83131 | 29.15743 | 1928 ft | 148 kts | 64° |
| 2026-04-28 16:40 | 40.83576 | 29.16948 | 1778 ft | 148 kts | 64° |
| 2026-04-28 16:40 | 40.84026 | 29.18169 | 1626 ft | 147 kts | 64° |
| 2026-04-28 16:41 | 40.84475 | 29.19387 | 1454 ft | 148 kts | 64° |
| 2026-04-28 16:41 | 40.84924 | 29.20603 | 1281 ft | 147 kts | 64° |
| 2026-04-28 16:41 | 40.85372 | 29.21814 | 1098 ft | 146 kts | 64° |
| 2026-04-28 16:41 | 40.85817 | 29.23019 | 932 ft | 146 kts | 64° |
| 2026-04-28 16:42 | 40.86258 | 29.24213 | 773 ft | 145 kts | 64° |
| 2026-04-28 16:42 | 40.86529 | 29.24947 | 706 ft | 144 kts | 64° |
| 2026-04-28 16:42 | 40.86951 | 29.26093 | 614 ft | 145 kts | 64° |
| 2026-04-28 16:42 | 40.87394 | 29.27293 | 515 ft | 145 kts | 64° |
| 2026-04-28 16:43 | 40.87834 | 29.28487 | 409 ft | 144 kts | 64° |
| 2026-04-28 16:43 | 40.88273 | 29.29676 | 347 ft | 144 kts | 64° |
| 2026-04-28 16:43 | 40.88712 | 29.30869 | 295 ft | 143 kts | 64° |
| 2026-04-28 16:43 | 40.89114 | 29.31951 | 308 ft | 99 kts | 63° |
| 2026-04-28 16:44 | 40.89229 | 29.32253 | 304 ft | 11 kts | 62° |
| 2026-04-28 16:44 | 40.89277 | 29.32334 | 302 ft | 13 kts | 44° |
| 2026-04-28 16:44 | 40.89348 | 29.32412 | 304 ft | 13 kts | 36° |
| 2026-04-28 16:44 | 40.89439 | 29.32469 | 308 ft | 16 kts | 350° |
| 2026-04-28 16:45 | 40.89457 | 29.32343 | 306 ft | 17 kts | 251° |
| 2026-04-28 16:45 | 40.89405 | 29.32181 | 306 ft | 21 kts | 246° |
| 2026-04-28 16:45 | 40.89369 | 29.32001 | 309 ft | 20 kts | 279° |
| 2026-04-28 16:45 | 40.89392 | 29.31820 | 306 ft | 20 kts | 279° |
| 2026-04-28 16:46 | 40.89415 | 29.31643 | 306 ft | 19 kts | 279° |
| 2026-04-28 16:46 | 40.89412 | 29.31506 | 306 ft | 10 kts | 256° |
| 2026-04-28 16:46 | 40.89389 | 29.31428 | 305 ft | 9 kts | 243° |
| 2026-04-28 16:46 | 40.89362 | 29.31356 | 305 ft | 8 kts | 244° |
| 2026-04-28 16:47 | 40.89350 | 29.31323 | 305 ft | 3 kts | 244° |
| 2026-04-28 16:47 | 40.89348 | 29.31316 | 305 ft | 0 kts | 244° |